CFG1EP EGKK-EDDF
Flight info
| Callsign | CFG1EP |
|---|---|
| Flight time | 0h 52m |
| Altitude | 39000 |
| Route | MIMFO Y312 DVR UL9 KONAN UL607 SPI T180 NIVNU/N0390F230 T847 IMCOM IMCOM2C |
| Aircraft | A321/M-SDE3FGHIJ1LORVWXYZ/LB1D1 |
Departure
| Time | 2026-04-15 04:42 |
|---|---|
| Airport | London Gatwick Airport (EGKK) |
Arrival
| Time | 2026-04-15 05:34 |
|---|---|
| Airport | Frankfurt Main Airport (EDDF) |
| Time | Latitude | Longitude | Altitude | Speed | Heading |
|---|---|---|---|---|---|
| 2026-04-15 04:08 | 51.15819 | -0.17928 | 214 ft | 0 kts | 78° |
| 2026-04-15 04:08 | 51.15817 | -0.17940 | 216 ft | 0 kts | 77° |
| 2026-04-15 04:22 | 51.15816 | -0.17940 | 204 ft | 0 kts | 77° |
| 2026-04-15 04:22 | 51.15817 | -0.17940 | 204 ft | 0 kts | 77° |
| 2026-04-15 04:23 | 51.15816 | -0.17940 | 204 ft | 0 kts | 77° |
| 2026-04-15 04:23 | 51.15817 | -0.17940 | 204 ft | 0 kts | 77° |
| 2026-04-15 04:23 | 51.15816 | -0.17940 | 204 ft | 0 kts | 77° |
| 2026-04-15 04:26 | 51.15816 | -0.17941 | 204 ft | 0 kts | 77° |
| 2026-04-15 04:34 | 51.15813 | -0.17976 | 207 ft | 4 kts | 91° |
| 2026-04-15 04:34 | 51.15817 | -0.18018 | 209 ft | 4 kts | 110° |
| 2026-04-15 04:35 | 51.15829 | -0.18055 | 214 ft | 4 kts | 131° |
| 2026-04-15 04:35 | 51.15849 | -0.18080 | 211 ft | 3 kts | 165° |
| 2026-04-15 04:35 | 51.15852 | -0.18082 | 208 ft | 2 kts | 168° |
| 2026-04-15 04:35 | 51.15853 | -0.18082 | 208 ft | 0 kts | 168° |
| 2026-04-15 04:37 | 51.15841 | -0.18077 | 213 ft | 8 kts | 167° |
| 2026-04-15 04:37 | 51.15756 | -0.18048 | 204 ft | 14 kts | 168° |
| 2026-04-15 04:37 | 51.15701 | -0.17981 | 205 ft | 10 kts | 97° |
| 2026-04-15 04:38 | 51.15711 | -0.17874 | 210 ft | 10 kts | 79° |
| 2026-04-15 04:38 | 51.15724 | -0.17773 | 207 ft | 9 kts | 78° |
| 2026-04-15 04:38 | 51.15746 | -0.17607 | 206 ft | 18 kts | 78° |
| 2026-04-15 04:38 | 51.15689 | -0.17487 | 208 ft | 15 kts | 165° |
| 2026-04-15 04:39 | 51.15584 | -0.17449 | 215 ft | 16 kts | 167° |
| 2026-04-15 04:39 | 51.15477 | -0.17412 | 204 ft | 16 kts | 168° |
| 2026-04-15 04:39 | 51.15369 | -0.17375 | 214 ft | 16 kts | 168° |
| 2026-04-15 04:39 | 51.15260 | -0.17332 | 215 ft | 16 kts | 155° |
| 2026-04-15 04:40 | 51.15181 | -0.17242 | 210 ft | 9 kts | 144° |
| 2026-04-15 04:40 | 51.15174 | -0.17235 | 211 ft | 0 kts | 144° |
| 2026-04-15 04:40 | 51.15140 | -0.17184 | 207 ft | 13 kts | 125° |
| 2026-04-15 04:41 | 51.15075 | -0.17179 | 209 ft | 11 kts | 236° |
| 2026-04-15 04:41 | 51.15066 | -0.17219 | 206 ft | 0 kts | 253° |
| 2026-04-15 04:41 | 51.15046 | -0.17350 | 205 ft | 44 kts | 259° |
| 2026-04-15 04:41 | 51.14925 | -0.18228 | 211 ft | 115 kts | 257° |
| 2026-04-15 04:42 | 51.14695 | -0.19749 | 276 ft | 159 kts | 254° |
| 2026-04-15 04:42 | 51.14461 | -0.21418 | 946 ft | 155 kts | 254° |
| 2026-04-15 04:42 | 51.14255 | -0.23106 | 1684 ft | 151 kts | 253° |
| 2026-04-15 04:42 | 51.14037 | -0.24794 | 2103 ft | 164 kts | 253° |
| 2026-04-15 04:43 | 51.13778 | -0.26686 | 2348 ft | 185 kts | 253° |
| 2026-04-15 04:43 | 51.13795 | -0.28864 | 2511 ft | 213 kts | 279° |
| 2026-04-15 04:43 | 51.14592 | -0.30968 | 2819 ft | 236 kts | 312° |
| 2026-04-15 04:43 | 51.16101 | -0.32137 | 3483 ft | 250 kts | 348° |
| 2026-04-15 04:44 | 51.17821 | -0.31763 | 4250 ft | 254 kts | 26° |
| 2026-04-15 04:44 | 51.19085 | -0.29878 | 5024 ft | 251 kts | 65° |
| 2026-04-15 04:44 | 51.19556 | -0.27264 | 5798 ft | 245 kts | 84° |
| 2026-04-15 04:44 | 51.19866 | -0.24607 | 6502 ft | 251 kts | 84° |
| 2026-04-15 04:45 | 51.20186 | -0.21849 | 7129 ft | 256 kts | 84° |
| 2026-04-15 04:45 | 51.20525 | -0.18957 | 7696 ft | 271 kts | 83° |
| 2026-04-15 04:45 | 51.20899 | -0.15927 | 8174 ft | 292 kts | 82° |
| 2026-04-15 04:45 | 51.21312 | -0.12704 | 8969 ft | 300 kts | 82° |
| 2026-04-15 04:46 | 51.21743 | -0.09416 | 9855 ft | 306 kts | 82° |
| 2026-04-15 04:46 | 51.22657 | -0.02465 | 10797 ft | 342 kts | 81° |
| 2026-04-15 04:46 | 51.23161 | 0.01372 | 10977 ft | 363 kts | 80° |
| 2026-04-15 04:47 | 51.23686 | 0.05362 | 11604 ft | 370 kts | 80° |
| 2026-04-15 04:47 | 51.24214 | 0.09410 | 12330 ft | 375 kts | 80° |
| 2026-04-15 04:47 | 51.24747 | 0.13510 | 13090 ft | 379 kts | 80° |
| 2026-04-15 04:47 | 51.25240 | 0.17669 | 13812 ft | 383 kts | 84° |
| 2026-04-15 04:48 | 51.25337 | 0.21923 | 14451 ft | 385 kts | 95° |
| 2026-04-15 04:48 | 51.25039 | 0.26187 | 15078 ft | 389 kts | 99° |
| 2026-04-15 04:48 | 51.24705 | 0.30498 | 15703 ft | 393 kts | 99° |
| 2026-04-15 04:48 | 51.24374 | 0.34854 | 16330 ft | 398 kts | 99° |
| 2026-04-15 04:49 | 51.24041 | 0.39262 | 16966 ft | 403 kts | 99° |
| 2026-04-15 04:49 | 51.23697 | 0.43734 | 17595 ft | 408 kts | 99° |
| 2026-04-15 04:49 | 51.23349 | 0.48245 | 18178 ft | 413 kts | 98° |
| 2026-04-15 04:49 | 51.22998 | 0.52815 | 18687 ft | 417 kts | 98° |
| 2026-04-15 04:50 | 51.22642 | 0.57427 | 19236 ft | 421 kts | 98° |
| 2026-04-15 04:50 | 51.22281 | 0.62079 | 19809 ft | 424 kts | 98° |
| 2026-04-15 04:50 | 51.21916 | 0.66759 | 20392 ft | 427 kts | 98° |
| 2026-04-15 04:50 | 51.21545 | 0.71479 | 20970 ft | 430 kts | 98° |
| 2026-04-15 04:51 | 51.21166 | 0.76233 | 21548 ft | 434 kts | 98° |
| 2026-04-15 04:51 | 51.20782 | 0.81024 | 22122 ft | 437 kts | 98° |
| 2026-04-15 04:51 | 51.20396 | 0.85845 | 22694 ft | 440 kts | 98° |
| 2026-04-15 04:51 | 51.20006 | 0.90700 | 23248 ft | 444 kts | 98° |
| 2026-04-15 04:52 | 51.19612 | 0.95595 | 23826 ft | 447 kts | 98° |
| 2026-04-15 04:52 | 51.19214 | 1.00527 | 24218 ft | 451 kts | 98° |
| 2026-04-15 04:52 | 51.18808 | 1.05502 | 24627 ft | 454 kts | 98° |
| 2026-04-15 04:52 | 51.18396 | 1.10509 | 25053 ft | 457 kts | 98° |
| 2026-04-15 04:53 | 51.17978 | 1.15540 | 25475 ft | 460 kts | 98° |
| 2026-04-15 04:53 | 51.17554 | 1.20611 | 25885 ft | 462 kts | 98° |
| 2026-04-15 04:53 | 51.17125 | 1.25705 | 26297 ft | 465 kts | 98° |
| 2026-04-15 04:53 | 51.16692 | 1.30825 | 26702 ft | 468 kts | 98° |
| 2026-04-15 04:54 | 51.16256 | 1.35972 | 27108 ft | 470 kts | 98° |
| 2026-04-15 04:54 | 51.15887 | 1.41163 | 27502 ft | 473 kts | 96° |
| 2026-04-15 04:54 | 51.15613 | 1.46335 | 27885 ft | 476 kts | 94° |
| 2026-04-15 04:54 | 51.15392 | 1.51672 | 28271 ft | 478 kts | 94° |
| 2026-04-15 04:55 | 51.15196 | 1.56903 | 28633 ft | 481 kts | 94° |
| 2026-04-15 04:55 | 51.14987 | 1.62236 | 28986 ft | 483 kts | 94° |
| 2026-04-15 04:55 | 51.14754 | 1.67590 | 29336 ft | 486 kts | 94° |
| 2026-04-15 04:55 | 51.14496 | 1.72972 | 29703 ft | 489 kts | 95° |
| 2026-04-15 04:56 | 51.14220 | 1.78376 | 30047 ft | 491 kts | 95° |
| 2026-04-15 04:56 | 51.13935 | 1.83787 | 30472 ft | 490 kts | 95° |
| 2026-04-15 04:56 | 51.13647 | 1.89202 | 30885 ft | 490 kts | 95° |
| 2026-04-15 04:56 | 51.13358 | 1.94597 | 31311 ft | 490 kts | 95° |
| 2026-04-15 04:57 | 51.13068 | 1.99998 | 31701 ft | 489 kts | 95° |
| 2026-04-15 04:57 | 51.12782 | 2.05391 | 32110 ft | 489 kts | 95° |
| 2026-04-15 04:57 | 51.12498 | 2.10792 | 32522 ft | 489 kts | 94° |
| 2026-04-15 04:57 | 51.12212 | 2.16192 | 32934 ft | 489 kts | 94° |
| 2026-04-15 04:58 | 51.11925 | 2.21584 | 33351 ft | 489 kts | 94° |
| 2026-04-15 04:58 | 51.11633 | 2.26983 | 33766 ft | 489 kts | 94° |
| 2026-04-15 04:58 | 51.11339 | 2.32374 | 34176 ft | 489 kts | 94° |
| 2026-04-15 04:58 | 51.11041 | 2.37775 | 34531 ft | 489 kts | 94° |
| 2026-04-15 04:59 | 51.10739 | 2.43152 | 34891 ft | 489 kts | 94° |
| 2026-04-15 04:59 | 51.10435 | 2.48539 | 35267 ft | 488 kts | 94° |
| 2026-04-15 04:59 | 51.10128 | 2.53915 | 35603 ft | 488 kts | 94° |
| 2026-04-15 04:59 | 51.09816 | 2.59291 | 35947 ft | 488 kts | 94° |
| 2026-04-15 05:00 | 51.09428 | 2.64663 | 36264 ft | 489 kts | 99° |
| 2026-04-15 05:00 | 51.08630 | 2.69925 | 36582 ft | 490 kts | 105° |
| 2026-04-15 05:00 | 51.07686 | 2.75131 | 36884 ft | 490 kts | 105° |
| 2026-04-15 05:00 | 51.06734 | 2.80341 | 37136 ft | 491 kts | 105° |
| 2026-04-15 05:01 | 51.04828 | 2.90773 | 37164 ft | 491 kts | 104° |
| 2026-04-15 05:01 | 51.02929 | 3.01190 | 37171 ft | 491 kts | 104° |
| 2026-04-15 05:02 | 51.01019 | 3.11597 | 37172 ft | 491 kts | 105° |
| 2026-04-15 05:02 | 50.99098 | 3.21985 | 37181 ft | 491 kts | 105° |
| 2026-04-15 05:03 | 50.97163 | 3.32371 | 37190 ft | 490 kts | 104° |
| 2026-04-15 05:03 | 50.95224 | 3.42720 | 37178 ft | 489 kts | 104° |
| 2026-04-15 05:04 | 50.93275 | 3.53056 | 37185 ft | 489 kts | 104° |
| 2026-04-15 05:04 | 50.91317 | 3.63384 | 37186 ft | 489 kts | 104° |
| 2026-04-15 05:05 | 50.89347 | 3.73687 | 37186 ft | 489 kts | 105° |
| 2026-04-15 05:05 | 50.87355 | 3.83998 | 37190 ft | 489 kts | 104° |
| 2026-04-15 05:06 | 50.85367 | 3.94221 | 37193 ft | 489 kts | 104° |
| 2026-04-15 05:06 | 50.83356 | 4.04504 | 37203 ft | 489 kts | 104° |
| 2026-04-15 05:07 | 50.81341 | 4.14784 | 37212 ft | 489 kts | 104° |
| 2026-04-15 05:07 | 50.79311 | 4.25051 | 37210 ft | 489 kts | 104° |
| 2026-04-15 05:08 | 50.77275 | 4.35284 | 37217 ft | 488 kts | 104° |
| 2026-04-15 05:08 | 50.75237 | 4.45508 | 37219 ft | 488 kts | 104° |
| 2026-04-15 05:09 | 50.73190 | 4.55733 | 37217 ft | 488 kts | 105° |
| 2026-04-15 05:09 | 50.71146 | 4.65943 | 37221 ft | 488 kts | 104° |
| 2026-04-15 05:10 | 50.69167 | 4.76166 | 37213 ft | 487 kts | 104° |
| 2026-04-15 05:10 | 50.67203 | 4.86377 | 37219 ft | 486 kts | 104° |
| 2026-04-15 05:11 | 50.65205 | 4.96566 | 37218 ft | 487 kts | 104° |
| 2026-04-15 05:11 | 50.63120 | 5.06713 | 37221 ft | 487 kts | 105° |
| 2026-04-15 05:12 | 50.60999 | 5.16835 | 37224 ft | 486 kts | 104° |
| 2026-04-15 05:12 | 50.58895 | 5.26933 | 37225 ft | 485 kts | 104° |
| 2026-04-15 05:13 | 50.56796 | 5.37022 | 37228 ft | 485 kts | 104° |
| 2026-04-15 05:13 | 50.54696 | 5.47098 | 37233 ft | 485 kts | 104° |
| 2026-04-15 05:14 | 50.52575 | 5.57154 | 37235 ft | 485 kts | 105° |
| 2026-04-15 05:14 | 50.50484 | 5.67200 | 37230 ft | 482 kts | 103° |
| 2026-04-15 05:15 | 50.48596 | 5.77297 | 37241 ft | 480 kts | 101° |
| 2026-04-15 05:15 | 50.47089 | 5.85680 | 37239 ft | 480 kts | 101° |
| 2026-04-15 05:16 | 50.44929 | 5.97389 | 37242 ft | 480 kts | 102° |
| 2026-04-15 05:16 | 50.43017 | 6.07430 | 37236 ft | 479 kts | 102° |
| 2026-04-15 05:17 | 50.41409 | 6.15790 | 37240 ft | 478 kts | 102° |
| 2026-04-15 05:17 | 50.40448 | 6.20790 | 36984 ft | 480 kts | 102° |
| 2026-04-15 05:17 | 50.39483 | 6.25813 | 36280 ft | 482 kts | 102° |
| 2026-04-15 05:18 | 50.38515 | 6.30836 | 35609 ft | 482 kts | 102° |
| 2026-04-15 05:18 | 50.37542 | 6.35867 | 34952 ft | 483 kts | 102° |
| 2026-04-15 05:18 | 50.36622 | 6.40923 | 34309 ft | 480 kts | 98° |
| 2026-04-15 05:18 | 50.36138 | 6.46063 | 33592 ft | 475 kts | 90° |
| 2026-04-15 05:19 | 50.35838 | 6.51220 | 32892 ft | 475 kts | 90° |
| 2026-04-15 05:19 | 50.35523 | 6.56364 | 32188 ft | 475 kts | 91° |
| 2026-04-15 05:19 | 50.35197 | 6.61507 | 31509 ft | 474 kts | 91° |
| 2026-04-15 05:19 | 50.34865 | 6.66629 | 30849 ft | 472 kts | 91° |
| 2026-04-15 05:20 | 50.34529 | 6.71734 | 30183 ft | 471 kts | 92° |
| 2026-04-15 05:20 | 50.34194 | 6.76820 | 29426 ft | 468 kts | 92° |
| 2026-04-15 05:20 | 50.33865 | 6.81878 | 28688 ft | 466 kts | 92° |
| 2026-04-15 05:20 | 50.33241 | 6.86852 | 27959 ft | 468 kts | 104° |
| 2026-04-15 05:21 | 50.32024 | 6.91573 | 27275 ft | 468 kts | 112° |
| 2026-04-15 05:21 | 50.30655 | 6.96177 | 26606 ft | 465 kts | 112° |
| 2026-04-15 05:21 | 50.29309 | 7.00683 | 25950 ft | 461 kts | 112° |
| 2026-04-15 05:21 | 50.27956 | 7.05205 | 25299 ft | 457 kts | 113° |
| 2026-04-15 05:22 | 50.26615 | 7.09686 | 24662 ft | 453 kts | 113° |
| 2026-04-15 05:22 | 50.25281 | 7.14135 | 24038 ft | 449 kts | 113° |
| 2026-04-15 05:22 | 50.23960 | 7.18526 | 23351 ft | 445 kts | 114° |
| 2026-04-15 05:22 | 50.22648 | 7.22879 | 22625 ft | 441 kts | 114° |
| 2026-04-15 05:23 | 50.21347 | 7.27192 | 21912 ft | 437 kts | 114° |
| 2026-04-15 05:23 | 50.20058 | 7.31464 | 21222 ft | 433 kts | 114° |
| 2026-04-15 05:23 | 50.18841 | 7.35729 | 20555 ft | 428 kts | 111° |
| 2026-04-15 05:23 | 50.17752 | 7.40024 | 19889 ft | 423 kts | 109° |
| 2026-04-15 05:24 | 50.16753 | 7.44324 | 19238 ft | 419 kts | 108° |
| 2026-04-15 05:24 | 50.15795 | 7.48591 | 18601 ft | 416 kts | 108° |
| 2026-04-15 05:24 | 50.14843 | 7.52819 | 17951 ft | 411 kts | 108° |
| 2026-04-15 05:24 | 50.13883 | 7.56991 | 17302 ft | 406 kts | 109° |
| 2026-04-15 05:25 | 50.12913 | 7.61098 | 16650 ft | 402 kts | 109° |
| 2026-04-15 05:25 | 50.11935 | 7.65165 | 16014 ft | 398 kts | 110° |
| 2026-04-15 05:25 | 50.10897 | 7.69147 | 15389 ft | 395 kts | 116° |
| 2026-04-15 05:25 | 50.09633 | 7.72920 | 14791 ft | 391 kts | 118° |
| 2026-04-15 05:26 | 50.08371 | 7.76654 | 14194 ft | 388 kts | 118° |
| 2026-04-15 05:26 | 50.07114 | 7.80359 | 13544 ft | 385 kts | 118° |
| 2026-04-15 05:26 | 50.05871 | 7.84024 | 12890 ft | 382 kts | 118° |
| 2026-04-15 05:26 | 50.04633 | 7.87674 | 12253 ft | 379 kts | 118° |
| 2026-04-15 05:27 | 50.03407 | 7.91290 | 11629 ft | 376 kts | 118° |
| 2026-04-15 05:27 | 50.02188 | 7.94878 | 11012 ft | 373 kts | 118° |
| 2026-04-15 05:27 | 50.00978 | 7.98439 | 10401 ft | 370 kts | 118° |
| 2026-04-15 05:27 | 49.99796 | 8.01918 | 9774 ft | 367 kts | 118° |
| 2026-04-15 05:28 | 49.98596 | 8.05449 | 9095 ft | 360 kts | 118° |
| 2026-04-15 05:28 | 49.97474 | 8.08742 | 8460 ft | 343 kts | 118° |
| 2026-04-15 05:28 | 49.96090 | 8.11721 | 7827 ft | 329 kts | 135° |
| 2026-04-15 05:28 | 49.94576 | 8.14144 | 7214 ft | 306 kts | 124° |
| 2026-04-15 05:29 | 49.93838 | 8.17152 | 6454 ft | 292 kts | 93° |
| 2026-04-15 05:29 | 49.94213 | 8.20111 | 5636 ft | 282 kts | 62° |
| 2026-04-15 05:29 | 49.95299 | 8.22592 | 4806 ft | 273 kts | 57° |
| 2026-04-15 05:29 | 49.96037 | 8.25218 | 4221 ft | 258 kts | 72° |
| 2026-04-15 05:30 | 49.96588 | 8.27782 | 3697 ft | 245 kts | 71° |
| 2026-04-15 05:30 | 49.97160 | 8.30219 | 3190 ft | 234 kts | 70° |
| 2026-04-15 05:30 | 49.97717 | 8.32515 | 3014 ft | 212 kts | 70° |
| 2026-04-15 05:30 | 49.98209 | 8.34541 | 2891 ft | 196 kts | 71° |
| 2026-04-15 05:31 | 49.98669 | 8.36444 | 2696 ft | 174 kts | 71° |
| 2026-04-15 05:31 | 49.99067 | 8.38091 | 2488 ft | 154 kts | 71° |
| 2026-04-15 05:31 | 49.99417 | 8.39539 | 2283 ft | 139 kts | 72° |
| 2026-04-15 05:31 | 49.99747 | 8.40911 | 2095 ft | 133 kts | 72° |
| 2026-04-15 05:32 | 50.00070 | 8.42251 | 1915 ft | 131 kts | 72° |
| 2026-04-15 05:32 | 50.00387 | 8.43569 | 1740 ft | 130 kts | 72° |
| 2026-04-15 05:32 | 50.00704 | 8.44885 | 1546 ft | 130 kts | 71° |
| 2026-04-15 05:32 | 50.01020 | 8.46198 | 1370 ft | 130 kts | 71° |
| 2026-04-15 05:33 | 50.01336 | 8.47513 | 1177 ft | 130 kts | 70° |
| 2026-04-15 05:33 | 50.01652 | 8.48830 | 1000 ft | 130 kts | 69° |
| 2026-04-15 05:33 | 50.01970 | 8.50150 | 816 ft | 131 kts | 69° |
| 2026-04-15 05:33 | 50.02286 | 8.51470 | 642 ft | 130 kts | 68° |
| 2026-04-15 05:34 | 50.02603 | 8.52793 | 465 ft | 130 kts | 68° |
| 2026-04-15 05:34 | 50.02917 | 8.54104 | 334 ft | 124 kts | 69° |
| 2026-04-15 05:34 | 50.03158 | 8.55089 | 349 ft | 68 kts | 69° |
| 2026-04-15 05:34 | 50.03273 | 8.55561 | 344 ft | 37 kts | 68° |
| 2026-04-15 05:35 | 50.03304 | 8.55681 | 353 ft | 0 kts | 67° |
| 2026-04-15 05:35 | 50.03348 | 8.55745 | 349 ft | 22 kts | 41° |
| 2026-04-15 05:35 | 50.03464 | 8.55902 | 349 ft | 19 kts | 39° |
| 2026-04-15 05:35 | 50.03564 | 8.56016 | 353 ft | 16 kts | 35° |
| 2026-04-15 05:36 | 50.03640 | 8.56126 | 360 ft | 14 kts | 54° |
| 2026-04-15 05:36 | 50.03683 | 8.56254 | 358 ft | 13 kts | 69° |
| 2026-04-15 05:36 | 50.03715 | 8.56390 | 359 ft | 13 kts | 70° |
| 2026-04-15 05:36 | 50.03746 | 8.56526 | 355 ft | 13 kts | 70° |
| 2026-04-15 05:37 | 50.03784 | 8.56646 | 361 ft | 10 kts | 28° |
| 2026-04-15 05:37 | 50.03853 | 8.56670 | 354 ft | 9 kts | 11° |
| 2026-04-15 05:37 | 50.03911 | 8.56687 | 361 ft | 8 kts | 11° |
| 2026-04-15 05:37 | 50.03999 | 8.56716 | 356 ft | 20 kts | 12° |
| 2026-04-15 05:38 | 50.04152 | 8.56764 | 358 ft | 21 kts | 11° |
| 2026-04-15 05:38 | 50.04258 | 8.56825 | 360 ft | 12 kts | 57° |
| 2026-04-15 05:38 | 50.04287 | 8.56949 | 362 ft | 13 kts | 69° |
| 2026-04-15 05:38 | 50.04319 | 8.57076 | 362 ft | 12 kts | 69° |
| 2026-04-15 05:39 | 50.04346 | 8.57193 | 363 ft | 12 kts | 70° |
| 2026-04-15 05:39 | 50.04375 | 8.57313 | 365 ft | 12 kts | 70° |
| 2026-04-15 05:39 | 50.04404 | 8.57436 | 364 ft | 12 kts | 70° |
| 2026-04-15 05:39 | 50.04434 | 8.57562 | 364 ft | 12 kts | 69° |
| 2026-04-15 05:40 | 50.04460 | 8.57665 | 368 ft | 10 kts | 70° |
| 2026-04-15 05:40 | 50.04500 | 8.57836 | 370 ft | 21 kts | 69° |
| 2026-04-15 05:40 | 50.04548 | 8.58010 | 366 ft | 15 kts | 42° |
| 2026-04-15 05:40 | 50.04657 | 8.57988 | 358 ft | 18 kts | 340° |
| 2026-04-15 05:41 | 50.04761 | 8.57926 | 360 ft | 12 kts | 329° |
| 2026-04-15 05:41 | 50.04764 | 8.57868 | 360 ft | 5 kts | 264° |
| 2026-04-15 05:41 | 50.04762 | 8.57796 | 362 ft | 8 kts | 269° |
| 2026-04-15 05:41 | 50.04763 | 8.57751 | 359 ft | 1 kts | 270° |
| 2026-04-15 05:42 | 50.04763 | 8.57734 | 356 ft | 0 kts | 270° |